Flight Track Log - Related Links

Times and Time Zones

All times are in EST time to prevent confusion due to time zone crossing. See the SVA1480 flight status page for this flight to view local times or setup timezone preferences in your user account.

Time Position Orientation Groundspeed Altitude Reporting Facility
EST Latitude Longitude Course Direction KTS MPH feet Rate Location/Type
Wed 11:58:00 PM 27.3234 46.3006 171° South  Level Estimated
Wed 11:59:00 PM 27.2391 46.3151 171° South  Level Estimated
Thu 12:00:00 AM 27.1548 46.3295 171° South  Level Estimated
Thu 12:01:00 AM 27.0704 46.3440 171° South  Level Estimated
Thu 12:02:00 AM 26.9861 46.3584 171° South  Level Estimated
Thu 12:03:00 AM 26.9018 46.3728 171° South  Level Estimated
Thu 12:04:00 AM 26.8174 46.3871 171° South  Level Estimated
Thu 12:05:00 AM 26.7331 46.4015 171° South  Level Estimated
Thu 12:06:00 AM 26.6488 46.4158 171° South  Level Estimated
Thu 12:07:00 AM 26.5644 46.4301 171° South  Level Estimated
Thu 12:08:00 AM 26.4801 46.4444 171° South  Level Estimated
Thu 12:09:00 AM 26.3958 46.4587 171° South  Level Estimated
Thu 12:10:00 AM 26.3114 46.4729 171° South  Level Estimated
Thu 12:11:00 AM 26.2271 46.4871 171° South  Level Estimated
Thu 12:12:00 AM 26.1427 46.5013 171° South  Level Estimated
Thu 12:13:00 AM 26.0584 46.5155 171° South  Level Estimated
Thu 12:14:00 AM 25.9741 46.5297 171° South  Level Estimated
Thu 12:15:00 AM 25.8897 46.5438 171° South  Level Estimated
Thu 12:16:00 AM 25.8054 46.5579 171° South  Level Estimated
Thu 12:17:00 AM 25.7210 46.5720 171° South  Level Estimated
Thu 12:18:00 AM 25.6367 46.5861 171° South  Level Estimated
Thu 12:19:00 AM 25.5523 46.6002 171° South  Level Estimated
Thu 12:20:00 AM 25.4680 46.6142 171° South  Level Estimated
Thu 12:21:00 AM 25.3836 46.6283 171° South  Level Estimated
Thu 12:22:00 AM 25.2992 46.6423 171° South  Level Estimated
Thu 12:23:00 AM 25.2149 46.6562 171° South  Level Estimated
Thu 12:24:00 AM 25.1305 46.6702 171° South  Level Estimated
Thu 12:25:00 AM 25.0462 46.6842 171° South  Level Estimated
Thu 12:26:00 AM 24.9618 46.6981 171° South  Level Estimated
Thu 12:27:00 AM 24.9576 46.6988 172° South  Level Estimated
Thu 12:28:00 AM 24.9576 46.6988 270° West  Level Estimated
Thu 12:29:00 AM 24.9576 46.6988 270° West  Level Estimated
Thu 12:30:00 AM 24.9576 46.6988 270° West  Level Estimated
Thu 12:31:00 AM 24.9576 46.6988 270° West  Level Estimated
Thu 12:32:00 AM 24.9576 46.6988 270° West  Level Estimated
Thu 12:33:00 AM 24.9576 46.6988 270° West  Level Estimated
Thu 12:34:00 AM 24.9576 46.6988 270° West  Level Estimated
Thu 12:35:00 AM 24.9576 46.6988 270° West  Level Estimated

Login

Don't have an account? Register now (free) for customized features, flight alerts, and more!